sensor_id;sensor_type;location;lat;lon;timestamp;P1;durP1;ratioP1;P2;durP2;ratioP2
40453;SDS011;26160;51.858;4.398;2022-10-31T00:02:10;6.63;;;5.38;;
40453;SDS011;26160;51.858;4.398;2022-10-31T00:04:36;6.32;;;5.05;;
40453;SDS011;26160;51.858;4.398;2022-10-31T00:07:02;10.02;;;6.10;;
40453;SDS011;26160;51.858;4.398;2022-10-31T00:09:29;11.18;;;5.43;;
40453;SDS011;26160;51.858;4.398;2022-10-31T00:11:55;12.35;;;6.53;;
40453;SDS011;26160;51.858;4.398;2022-10-31T00:14:21;10.38;;;6.47;;
40453;SDS011;26160;51.858;4.398;2022-10-31T00:16:47;9.82;;;6.03;;
40453;SDS011;26160;51.858;4.398;2022-10-31T00:19:13;12.43;;;7.18;;
40453;SDS011;26160;51.858;4.398;2022-10-31T00:21:39;9.80;;;6.57;;
40453;SDS011;26160;51.858;4.398;2022-10-31T00:24:05;10.68;;;6.60;;
40453;SDS011;26160;51.858;4.398;2022-10-31T00:26:31;10.30;;;6.57;;
40453;SDS011;26160;51.858;4.398;2022-10-31T00:28:58;8.70;;;5.55;;
40453;SDS011;26160;51.858;4.398;2022-10-31T00:31:25;11.68;;;7.05;;
40453;SDS011;26160;51.858;4.398;2022-10-31T00:33:51;10.63;;;7.18;;
40453;SDS011;26160;51.858;4.398;2022-10-31T00:36:18;14.85;;;7.68;;
40453;SDS011;26160;51.858;4.398;2022-10-31T00:38:46;23.98;;;8.63;;
40453;SDS011;26160;51.858;4.398;2022-10-31T00:41:14;12.25;;;8.80;;
40453;SDS011;26160;51.858;4.398;2022-10-31T00:43:42;14.40;;;8.15;;
40453;SDS011;26160;51.858;4.398;2022-10-31T00:46:09;11.85;;;7.70;;
40453;SDS011;26160;51.858;4.398;2022-10-31T00:48:36;12.45;;;7.50;;
40453;SDS011;26160;51.858;4.398;2022-10-31T00:51:02;11.93;;;7.70;;
40453;SDS011;26160;51.858;4.398;2022-10-31T00:53:28;18.20;;;9.35;;
40453;SDS011;26160;51.858;4.398;2022-10-31T00:55:54;12.32;;;9.30;;
40453;SDS011;26160;51.858;4.398;2022-10-31T00:58:20;11.98;;;9.00;;
40453;SDS011;26160;51.858;4.398;2022-10-31T01:00:47;12.43;;;10.25;;
40453;SDS011;26160;51.858;4.398;2022-10-31T01:03:23;12.30;;;9.25;;
40453;SDS011;26160;51.858;4.398;2022-10-31T01:05:55;11.90;;;8.18;;
40453;SDS011;26160;51.858;4.398;2022-10-31T01:08:25;11.80;;;8.50;;
40453;SDS011;26160;51.858;4.398;2022-10-31T01:11:08;15.82;;;9.82;;
40453;SDS011;26160;51.858;4.398;2022-10-31T01:13:37;11.35;;;8.85;;
40453;SDS011;26160;51.858;4.398;2022-10-31T01:16:04;10.95;;;9.05;;
40453;SDS011;26160;51.858;4.398;2022-10-31T01:18:32;12.13;;;8.55;;
40453;SDS011;26160;51.858;4.398;2022-10-31T01:23:35;13.27;;;9.30;;
40453;SDS011;26160;51.858;4.398;2022-10-31T01:26:02;15.73;;;10.13;;
40453;SDS011;26160;51.858;4.398;2022-10-31T01:28:43;13.40;;;9.07;;
40453;SDS011;26160;51.858;4.398;2022-10-31T01:31:21;13.50;;;9.43;;
40453;SDS011;26160;51.858;4.398;2022-10-31T01:33:49;12.37;;;9.40;;
40453;SDS011;26160;51.858;4.398;2022-10-31T01:38:53;14.83;;;9.13;;
40453;SDS011;26160;51.858;4.398;2022-10-31T01:41:22;11.83;;;9.17;;
40453;SDS011;26160;51.858;4.398;2022-10-31T01:43:53;15.27;;;10.10;;
40453;SDS011;26160;51.858;4.398;2022-10-31T01:46:24;10.30;;;8.00;;
40453;SDS011;26160;51.858;4.398;2022-10-31T01:48:55;13.27;;;9.10;;
40453;SDS011;26160;51.858;4.398;2022-10-31T01:51:26;13.00;;;9.80;;
40453;SDS011;26160;51.858;4.398;2022-10-31T01:53:57;15.70;;;9.83;;
40453;SDS011;26160;51.858;4.398;2022-10-31T01:56:27;13.37;;;9.03;;
40453;SDS011;26160;51.858;4.398;2022-10-31T01:58:53;12.30;;;9.53;;
40453;SDS011;26160;51.858;4.398;2022-10-31T02:03:57;10.77;;;9.37;;
40453;SDS011;26160;51.858;4.398;2022-10-31T02:06:29;13.17;;;9.47;;
40453;SDS011;26160;51.858;4.398;2022-10-31T02:09:04;14.70;;;10.40;;
40453;SDS011;26160;51.858;4.398;2022-10-31T02:11:31;13.80;;;9.17;;
40453;SDS011;26160;51.858;4.398;2022-10-31T02:14:00;16.23;;;10.97;;
40453;SDS011;26160;51.858;4.398;2022-10-31T02:16:28;8.80;;;7.90;;
40453;SDS011;26160;51.858;4.398;2022-10-31T02:18:54;13.37;;;9.20;;
40453;SDS011;26160;51.858;4.398;2022-10-31T02:21:37;16.27;;;10.87;;
40453;SDS011;26160;51.858;4.398;2022-10-31T02:24:45;12.87;;;10.63;;
40453;SDS011;26160;51.858;4.398;2022-10-31T02:27:11;10.88;;;9.38;;
40453;SDS011;26160;51.858;4.398;2022-10-31T02:32:30;10.23;;;8.50;;
40453;SDS011;26160;51.858;4.398;2022-10-31T02:43:28;14.60;;;10.63;;
40453;SDS011;26160;51.858;4.398;2022-10-31T02:48:54;18.77;;;11.53;;
40453;SDS011;26160;51.858;4.398;2022-10-31T02:51:25;13.50;;;10.87;;
40453;SDS011;26160;51.858;4.398;2022-10-31T02:53:51;19.07;;;11.07;;
40453;SDS011;26160;51.858;4.398;2022-10-31T02:56:18;13.90;;;10.77;;
40453;SDS011;26160;51.858;4.398;2022-10-31T02:58:47;14.77;;;9.83;;
40453;SDS011;26160;51.858;4.398;2022-10-31T03:01:20;15.15;;;10.90;;
40453;SDS011;26160;51.858;4.398;2022-10-31T03:04:28;13.43;;;10.47;;
40453;SDS011;26160;51.858;4.398;2022-10-31T03:09:57;14.67;;;12.20;;
40453;SDS011;26160;51.858;4.398;2022-10-31T03:15:40;13.50;;;11.63;;
40453;SDS011;26160;51.858;4.398;2022-10-31T03:21:01;16.17;;;11.30;;
40453;SDS011;26160;51.858;4.398;2022-10-31T03:23:40;16.97;;;12.00;;
40453;SDS011;26160;51.858;4.398;2022-10-31T03:26:09;15.53;;;12.07;;
40453;SDS011;26160;51.858;4.398;2022-10-31T03:28:43;19.50;;;12.87;;
40453;SDS011;26160;51.858;4.398;2022-10-31T03:31:15;15.87;;;12.80;;
40453;SDS011;26160;51.858;4.398;2022-10-31T03:33:43;17.13;;;12.33;;
40453;SDS011;26160;51.858;4.398;2022-10-31T03:36:11;17.57;;;12.83;;
40453;SDS011;26160;51.858;4.398;2022-10-31T03:38:41;20.97;;;13.60;;
40453;SDS011;26160;51.858;4.398;2022-10-31T03:41:11;18.67;;;12.67;;
40453;SDS011;26160;51.858;4.398;2022-10-31T03:43:42;14.67;;;11.53;;
40453;SDS011;26160;51.858;4.398;2022-10-31T03:46:16;17.00;;;13.53;;
40453;SDS011;26160;51.858;4.398;2022-10-31T03:48:43;17.43;;;13.33;;
40453;SDS011;26160;51.858;4.398;2022-10-31T03:54:00;19.30;;;14.00;;
40453;SDS011;26160;51.858;4.398;2022-10-31T03:56:33;19.13;;;14.00;;
40453;SDS011;26160;51.858;4.398;2022-10-31T03:59:14;20.17;;;14.23;;
40453;SDS011;26160;51.858;4.398;2022-10-31T04:01:53;21.17;;;13.60;;
40453;SDS011;26160;51.858;4.398;2022-10-31T04:04:23;16.17;;;12.03;;
40453;SDS011;26160;51.858;4.398;2022-10-31T04:06:50;21.23;;;15.47;;
40453;SDS011;26160;51.858;4.398;2022-10-31T04:09:19;18.37;;;13.97;;
40453;SDS011;26160;51.858;4.398;2022-10-31T04:11:48;19.43;;;14.43;;
40453;SDS011;26160;51.858;4.398;2022-10-31T04:14:18;25.67;;;15.45;;
40453;SDS011;26160;51.858;4.398;2022-10-31T04:16:45;21.37;;;14.87;;
40453;SDS011;26160;51.858;4.398;2022-10-31T04:19:11;22.30;;;14.20;;
40453;SDS011;26160;51.858;4.398;2022-10-31T04:21:38;19.83;;;14.33;;
40453;SDS011;26160;51.858;4.398;2022-10-31T04:24:04;19.00;;;15.30;;
40453;SDS011;26160;51.858;4.398;2022-10-31T04:26:30;21.90;;;14.30;;
40453;SDS011;26160;51.858;4.398;2022-10-31T04:28:57;21.97;;;15.13;;
40453;SDS011;26160;51.858;4.398;2022-10-31T04:31:23;26.30;;;15.80;;
40453;SDS011;26160;51.858;4.398;2022-10-31T04:33:49;23.03;;;16.40;;
40453;SDS011;26160;51.858;4.398;2022-10-31T04:36:15;21.23;;;16.17;;
40453;SDS011;26160;51.858;4.398;2022-10-31T04:38:41;21.97;;;16.03;;
40453;SDS011;26160;51.858;4.398;2022-10-31T04:41:07;21.50;;;16.97;;
40453;SDS011;26160;51.858;4.398;2022-10-31T04:43:33;20.67;;;16.23;;
40453;SDS011;26160;51.858;4.398;2022-10-31T04:45:59;22.90;;;15.80;;
40453;SDS011;26160;51.858;4.398;2022-10-31T04:48:25;21.67;;;14.93;;
40453;SDS011;26160;51.858;4.398;2022-10-31T04:50:51;18.60;;;14.13;;
40453;SDS011;26160;51.858;4.398;2022-10-31T04:53:17;21.47;;;15.17;;
40453;SDS011;26160;51.858;4.398;2022-10-31T04:55:43;24.53;;;17.00;;
40453;SDS011;26160;51.858;4.398;2022-10-31T04:58:10;19.47;;;14.83;;
40453;SDS011;26160;51.858;4.398;2022-10-31T05:00:36;19.27;;;14.07;;
40453;SDS011;26160;51.858;4.398;2022-10-31T05:03:02;15.27;;;12.03;;
40453;SDS011;26160;51.858;4.398;2022-10-31T05:05:29;22.77;;;16.73;;
40453;SDS011;26160;51.858;4.398;2022-10-31T05:07:56;24.30;;;16.40;;
40453;SDS011;26160;51.858;4.398;2022-10-31T05:10:23;21.57;;;17.33;;
40453;SDS011;26160;51.858;4.398;2022-10-31T05:12:52;23.13;;;17.33;;
40453;SDS011;26160;51.858;4.398;2022-10-31T05:15:20;24.70;;;17.07;;
40453;SDS011;26160;51.858;4.398;2022-10-31T05:17:47;26.93;;;17.13;;
40453;SDS011;26160;51.858;4.398;2022-10-31T05:20:14;25.53;;;17.83;;
40453;SDS011;26160;51.858;4.398;2022-10-31T05:22:45;23.30;;;17.30;;
40453;SDS011;26160;51.858;4.398;2022-10-31T05:25:13;22.90;;;16.90;;
40453;SDS011;26160;51.858;4.398;2022-10-31T05:27:44;22.33;;;16.63;;
40453;SDS011;26160;51.858;4.398;2022-10-31T05:30:12;25.80;;;18.43;;
40453;SDS011;26160;51.858;4.398;2022-10-31T05:32:43;26.60;;;17.50;;
40453;SDS011;26160;51.858;4.398;2022-10-31T05:35:12;23.87;;;16.93;;
40453;SDS011;26160;51.858;4.398;2022-10-31T05:37:40;27.33;;;18.93;;
40453;SDS011;26160;51.858;4.398;2022-10-31T05:40:06;21.77;;;17.03;;
40453;SDS011;26160;51.858;4.398;2022-10-31T05:42:34;22.30;;;17.60;;
40453;SDS011;26160;51.858;4.398;2022-10-31T05:45:01;26.40;;;19.10;;
40453;SDS011;26160;51.858;4.398;2022-10-31T05:47:27;26.97;;;18.30;;
40453;SDS011;26160;51.858;4.398;2022-10-31T05:49:53;28.80;;;20.73;;
40453;SDS011;26160;51.858;4.398;2022-10-31T05:52:19;24.80;;;19.43;;
40453;SDS011;26160;51.858;4.398;2022-10-31T05:54:45;24.80;;;19.60;;
40453;SDS011;26160;51.858;4.398;2022-10-31T05:57:11;25.60;;;18.27;;
40453;SDS011;26160;51.858;4.398;2022-10-31T05:59:37;25.73;;;18.70;;
40453;SDS011;26160;51.858;4.398;2022-10-31T06:02:03;25.30;;;18.47;;
40453;SDS011;26160;51.858;4.398;2022-10-31T06:04:29;30.07;;;20.50;;
40453;SDS011;26160;51.858;4.398;2022-10-31T06:06:56;27.30;;;21.03;;
40453;SDS011;26160;51.858;4.398;2022-10-31T06:09:22;27.40;;;20.37;;
40453;SDS011;26160;51.858;4.398;2022-10-31T06:11:49;28.03;;;18.83;;
40453;SDS011;26160;51.858;4.398;2022-10-31T06:14:15;29.63;;;21.50;;
40453;SDS011;26160;51.858;4.398;2022-10-31T06:16:41;32.30;;;20.70;;
40453;SDS011;26160;51.858;4.398;2022-10-31T06:19:07;41.83;;;21.83;;
40453;SDS011;26160;51.858;4.398;2022-10-31T06:21:33;38.20;;;21.20;;
40453;SDS011;26160;51.858;4.398;2022-10-31T06:23:59;47.40;;;24.17;;
40453;SDS011;26160;51.858;4.398;2022-10-31T06:26:25;43.97;;;24.00;;
40453;SDS011;26160;51.858;4.398;2022-10-31T06:28:51;43.13;;;22.50;;
40453;SDS011;26160;51.858;4.398;2022-10-31T06:31:17;38.23;;;21.00;;
40453;SDS011;26160;51.858;4.398;2022-10-31T06:33:43;35.23;;;21.10;;
40453;SDS011;26160;51.858;4.398;2022-10-31T06:36:09;39.40;;;22.60;;
40453;SDS011;26160;51.858;4.398;2022-10-31T06:38:35;35.00;;;21.97;;
40453;SDS011;26160;51.858;4.398;2022-10-31T06:41:02;39.27;;;24.63;;
40453;SDS011;26160;51.858;4.398;2022-10-31T06:43:29;34.27;;;22.13;;
40453;SDS011;26160;51.858;4.398;2022-10-31T06:45:56;37.13;;;23.50;;
40453;SDS011;26160;51.858;4.398;2022-10-31T06:48:22;40.93;;;23.63;;
40453;SDS011;26160;51.858;4.398;2022-10-31T06:50:49;47.47;;;26.60;;
40453;SDS011;26160;51.858;4.398;2022-10-31T06:53:15;60.63;;;26.50;;
40453;SDS011;26160;51.858;4.398;2022-10-31T06:55:41;72.70;;;29.07;;
40453;SDS011;26160;51.858;4.398;2022-10-31T06:58:08;67.10;;;31.67;;
40453;SDS011;26160;51.858;4.398;2022-10-31T07:00:35;63.27;;;28.33;;
40453;SDS011;26160;51.858;4.398;2022-10-31T07:03:06;72.50;;;31.67;;
40453;SDS011;26160;51.858;4.398;2022-10-31T07:05:35;60.70;;;30.53;;
40453;SDS011;26160;51.858;4.398;2022-10-31T07:08:03;61.13;;;30.57;;
40453;SDS011;26160;51.858;4.398;2022-10-31T07:10:31;84.77;;;37.17;;
40453;SDS011;26160;51.858;4.398;2022-10-31T07:13:00;181.43;;;46.77;;
40453;SDS011;26160;51.858;4.398;2022-10-31T07:15:34;63.28;;;35.08;;
40453;SDS011;26160;51.858;4.398;2022-10-31T07:18:02;87.63;;;29.17;;
40453;SDS011;26160;51.858;4.398;2022-10-31T07:20:30;66.87;;;30.17;;
40453;SDS011;26160;51.858;4.398;2022-10-31T07:22:56;61.93;;;30.37;;
40453;SDS011;26160;51.858;4.398;2022-10-31T07:25:23;43.90;;;27.10;;
40453;SDS011;26160;51.858;4.398;2022-10-31T07:27:50;39.17;;;29.85;;
40453;SDS011;26160;51.858;4.398;2022-10-31T07:30:16;52.03;;;26.38;;
40453;SDS011;26160;51.858;4.398;2022-10-31T07:35:12;37.10;;;28.00;;
40453;SDS011;26160;51.858;4.398;2022-10-31T07:37:43;76.90;;;29.13;;
40453;SDS011;26160;51.858;4.398;2022-10-31T07:40:09;34.53;;;26.58;;
40453;SDS011;26160;51.858;4.398;2022-10-31T07:45:04;40.63;;;28.77;;
40453;SDS011;26160;51.858;4.398;2022-10-31T07:47:40;34.13;;;26.50;;
40453;SDS011;26160;51.858;4.398;2022-10-31T07:50:08;39.47;;;26.50;;
40453;SDS011;26160;51.858;4.398;2022-10-31T07:52:37;34.10;;;25.48;;
40453;SDS011;26160;51.858;4.398;2022-10-31T07:55:05;53.17;;;26.48;;
40453;SDS011;26160;51.858;4.398;2022-10-31T07:57:32;40.33;;;27.10;;
40453;SDS011;26160;51.858;4.398;2022-10-31T07:59:58;49.28;;;29.40;;
40453;SDS011;26160;51.858;4.398;2022-10-31T08:02:24;35.88;;;25.02;;
40453;SDS011;26160;51.858;4.398;2022-10-31T08:04:51;41.83;;;23.00;;
40453;SDS011;26160;51.858;4.398;2022-10-31T08:07:17;64.43;;;28.80;;
40453;SDS011;26160;51.858;4.398;2022-10-31T08:09:44;94.88;;;32.28;;
40453;SDS011;26160;51.858;4.398;2022-10-31T08:12:10;85.70;;;28.67;;
40453;SDS011;26160;51.858;4.398;2022-10-31T08:14:36;77.95;;;27.73;;
40453;SDS011;26160;51.858;4.398;2022-10-31T08:17:02;40.00;;;24.50;;
40453;SDS011;26160;51.858;4.398;2022-10-31T08:19:28;27.63;;;22.40;;
40453;SDS011;26160;51.858;4.398;2022-10-31T08:21:54;34.30;;;25.90;;
40453;SDS011;26160;51.858;4.398;2022-10-31T08:24:21;40.08;;;26.85;;
40453;SDS011;26160;51.858;4.398;2022-10-31T08:26:47;39.72;;;24.95;;
40453;SDS011;26160;51.858;4.398;2022-10-31T08:29:13;60.28;;;34.05;;
40453;SDS011;26160;51.858;4.398;2022-10-31T08:31:40;58.85;;;35.35;;
40453;SDS011;26160;51.858;4.398;2022-10-31T08:34:07;57.50;;;32.78;;
40453;SDS011;26160;51.858;4.398;2022-10-31T08:36:33;59.35;;;34.17;;
40453;SDS011;26160;51.858;4.398;2022-10-31T08:38:59;69.80;;;36.45;;
40453;SDS011;26160;51.858;4.398;2022-10-31T08:41:26;42.80;;;29.58;;
40453;SDS011;26160;51.858;4.398;2022-10-31T08:43:52;61.00;;;36.75;;
40453;SDS011;26160;51.858;4.398;2022-10-31T08:46:18;43.30;;;29.25;;
40453;SDS011;26160;51.858;4.398;2022-10-31T08:48:44;43.20;;;29.45;;
40453;SDS011;26160;51.858;4.398;2022-10-31T08:51:13;82.55;;;44.58;;
40453;SDS011;26160;51.858;4.398;2022-10-31T08:53:39;55.42;;;37.03;;
40453;SDS011;26160;51.858;4.398;2022-10-31T08:56:05;41.85;;;30.52;;
40453;SDS011;26160;51.858;4.398;2022-10-31T08:58:32;49.20;;;32.65;;
40453;SDS011;26160;51.858;4.398;2022-10-31T09:00:58;54.47;;;35.85;;
40453;SDS011;26160;51.858;4.398;2022-10-31T09:03:26;67.55;;;38.45;;
40453;SDS011;26160;51.858;4.398;2022-10-31T09:05:59;47.38;;;33.85;;
40453;SDS011;26160;51.858;4.398;2022-10-31T09:08:31;59.78;;;36.38;;
40453;SDS011;26160;51.858;4.398;2022-10-31T09:10:58;48.75;;;31.80;;
40453;SDS011;26160;51.858;4.398;2022-10-31T09:13:25;51.17;;;33.65;;
40453;SDS011;26160;51.858;4.398;2022-10-31T09:15:52;53.92;;;33.75;;
40453;SDS011;26160;51.858;4.398;2022-10-31T09:18:19;53.53;;;34.33;;
40453;SDS011;26160;51.858;4.398;2022-10-31T09:20:47;45.20;;;31.08;;
40453;SDS011;26160;51.858;4.398;2022-10-31T09:23:15;43.45;;;28.90;;
40453;SDS011;26160;51.858;4.398;2022-10-31T09:25:43;59.67;;;35.33;;
40453;SDS011;26160;51.858;4.398;2022-10-31T09:28:12;51.65;;;33.78;;
40453;SDS011;26160;51.858;4.398;2022-10-31T09:30:46;44.15;;;31.67;;
40453;SDS011;26160;51.858;4.398;2022-10-31T09:33:14;55.78;;;34.78;;
40453;SDS011;26160;51.858;4.398;2022-10-31T09:35:41;53.30;;;35.72;;
40453;SDS011;26160;51.858;4.398;2022-10-31T09:38:14;51.55;;;32.88;;
40453;SDS011;26160;51.858;4.398;2022-10-31T09:40:43;53.08;;;33.20;;
40453;SDS011;26160;51.858;4.398;2022-10-31T09:52:35;41.45;;;28.55;;
40453;SDS011;26160;51.858;4.398;2022-10-31T09:55:12;44.10;;;29.17;;
40453;SDS011;26160;51.858;4.398;2022-10-31T09:57:45;51.35;;;34.22;;
40453;SDS011;26160;51.858;4.398;2022-10-31T10:00:19;41.33;;;27.48;;
40453;SDS011;26160;51.858;4.398;2022-10-31T10:02:56;44.75;;;28.77;;
40453;SDS011;26160;51.858;4.398;2022-10-31T10:05:40;36.35;;;26.52;;
40453;SDS011;26160;51.858;4.398;2022-10-31T10:08:18;40.85;;;26.63;;
40453;SDS011;26160;51.858;4.398;2022-10-31T10:10:49;36.88;;;26.48;;
40453;SDS011;26160;51.858;4.398;2022-10-31T10:30:21;37.92;;;24.10;;
40453;SDS011;26160;51.858;4.398;2022-10-31T10:36:36;32.88;;;21.60;;
40453;SDS011;26160;51.858;4.398;2022-10-31T10:41:50;29.25;;;19.30;;
40453;SDS011;26160;51.858;4.398;2022-10-31T10:44:39;30.85;;;20.23;;
40453;SDS011;26160;51.858;4.398;2022-10-31T10:47:30;27.00;;;18.05;;
40453;SDS011;26160;51.858;4.398;2022-10-31T10:55:27;24.30;;;18.13;;
40453;SDS011;26160;51.858;4.398;2022-10-31T10:58:09;27.83;;;19.02;;
40453;SDS011;26160;51.858;4.398;2022-10-31T11:00:40;26.05;;;17.13;;
40453;SDS011;26160;51.858;4.398;2022-10-31T11:03:08;24.88;;;17.30;;
40453;SDS011;26160;51.858;4.398;2022-10-31T11:08:32;28.25;;;18.17;;
40453;SDS011;26160;51.858;4.398;2022-10-31T11:11:06;31.17;;;18.95;;
40453;SDS011;26160;51.858;4.398;2022-10-31T11:13:52;25.52;;;18.67;;
40453;SDS011;26160;51.858;4.398;2022-10-31T11:19:35;30.90;;;20.45;;
40453;SDS011;26160;51.858;4.398;2022-10-31T11:22:05;31.08;;;21.50;;
40453;SDS011;26160;51.858;4.398;2022-10-31T11:24:36;33.08;;;23.38;;
40453;SDS011;26160;51.858;4.398;2022-10-31T11:29:52;37.58;;;24.40;;
40453;SDS011;26160;51.858;4.398;2022-10-31T11:32:28;39.40;;;25.52;;
40453;SDS011;26160;51.858;4.398;2022-10-31T11:35:11;39.28;;;23.60;;
40453;SDS011;26160;51.858;4.398;2022-10-31T11:37:44;38.45;;;24.73;;
40453;SDS011;26160;51.858;4.398;2022-10-31T11:42:57;35.30;;;25.02;;
40453;SDS011;26160;51.858;4.398;2022-10-31T11:45:33;39.92;;;26.13;;
40453;SDS011;26160;51.858;4.398;2022-10-31T11:48:02;35.53;;;26.00;;
40453;SDS011;26160;51.858;4.398;2022-10-31T11:50:40;35.42;;;25.52;;
40453;SDS011;26160;51.858;4.398;2022-10-31T11:53:18;42.10;;;27.10;;
40453;SDS011;26160;51.858;4.398;2022-10-31T11:56:05;36.72;;;27.38;;
40453;SDS011;26160;51.858;4.398;2022-10-31T11:58:40;43.03;;;26.73;;
40453;SDS011;26160;51.858;4.398;2022-10-31T12:01:08;37.20;;;25.20;;
40453;SDS011;26160;51.858;4.398;2022-10-31T12:06:36;38.70;;;27.20;;
40453;SDS011;26160;51.858;4.398;2022-10-31T12:09:37;35.30;;;24.55;;
40453;SDS011;26160;51.858;4.398;2022-10-31T12:12:02;40.20;;;26.38;;
40453;SDS011;26160;51.858;4.398;2022-10-31T12:17:23;37.35;;;27.25;;
40453;SDS011;26160;51.858;4.398;2022-10-31T12:23:14;38.33;;;26.45;;
40453;SDS011;26160;51.858;4.398;2022-10-31T12:26:26;44.33;;;29.65;;
40453;SDS011;26160;51.858;4.398;2022-10-31T12:29:01;36.97;;;28.43;;
40453;SDS011;26160;51.858;4.398;2022-10-31T12:48:57;42.47;;;27.27;;
40453;SDS011;26160;51.858;4.398;2022-10-31T12:51:21;40.55;;;27.65;;
40453;SDS011;26160;51.858;4.398;2022-10-31T12:59:30;43.53;;;27.35;;
40453;SDS011;26160;51.858;4.398;2022-10-31T13:02:21;45.75;;;28.30;;
40453;SDS011;26160;51.858;4.398;2022-10-31T13:07:40;42.22;;;27.25;;
40453;SDS011;26160;51.858;4.398;2022-10-31T13:10:16;39.60;;;27.52;;
40453;SDS011;26160;51.858;4.398;2022-10-31T13:12:54;43.88;;;28.17;;
40453;SDS011;26160;51.858;4.398;2022-10-31T13:15:25;46.20;;;29.27;;
40453;SDS011;26160;51.858;4.398;2022-10-31T13:18:03;46.92;;;27.85;;
40453;SDS011;26160;51.858;4.398;2022-10-31T13:20:40;46.22;;;28.58;;
40453;SDS011;26160;51.858;4.398;2022-10-31T13:23:27;40.63;;;27.48;;
40453;SDS011;26160;51.858;4.398;2022-10-31T13:25:59;47.13;;;30.15;;
40453;SDS011;26160;51.858;4.398;2022-10-31T13:28:40;47.95;;;28.75;;
40453;SDS011;26160;51.858;4.398;2022-10-31T13:31:11;43.20;;;27.50;;
40453;SDS011;26160;51.858;4.398;2022-10-31T13:33:39;48.63;;;29.52;;
40453;SDS011;26160;51.858;4.398;2022-10-31T13:36:38;51.28;;;31.70;;
40453;SDS011;26160;51.858;4.398;2022-10-31T13:44:34;50.03;;;29.83;;
40453;SDS011;26160;51.858;4.398;2022-10-31T13:47:20;51.22;;;31.85;;
40453;SDS011;26160;51.858;4.398;2022-10-31T13:49:46;45.40;;;29.85;;
40453;SDS011;26160;51.858;4.398;2022-10-31T13:57:17;48.00;;;28.77;;
40453;SDS011;26160;51.858;4.398;2022-10-31T13:59:53;49.97;;;30.08;;
40453;SDS011;26160;51.858;4.398;2022-10-31T14:02:24;43.50;;;27.90;;
40453;SDS011;26160;51.858;4.398;2022-10-31T14:05:27;44.30;;;28.10;;
40453;SDS011;26160;51.858;4.398;2022-10-31T14:07:45;43.78;;;28.02;;
40453;SDS011;26160;51.858;4.398;2022-10-31T14:10:29;50.40;;;31.35;;
40453;SDS011;26160;51.858;4.398;2022-10-31T14:13:07;47.92;;;28.65;;
40453;SDS011;26160;51.858;4.398;2022-10-31T14:15:56;44.40;;;30.58;;
40453;SDS011;26160;51.858;4.398;2022-10-31T14:18:24;45.53;;;27.70;;
40453;SDS011;26160;51.858;4.398;2022-10-31T14:21:16;44.03;;;28.58;;
40453;SDS011;26160;51.858;4.398;2022-10-31T14:23:48;50.70;;;30.48;;
40453;SDS011;26160;51.858;4.398;2022-10-31T14:28:52;39.92;;;28.52;;
40453;SDS011;26160;51.858;4.398;2022-10-31T14:33:56;43.92;;;28.90;;
40453;SDS011;26160;51.858;4.398;2022-10-31T14:36:35;47.83;;;28.95;;
40453;SDS011;26160;51.858;4.398;2022-10-31T14:42:17;38.47;;;26.85;;
40453;SDS011;26160;51.858;4.398;2022-10-31T14:44:58;40.58;;;28.30;;
40453;SDS011;26160;51.858;4.398;2022-10-31T14:48:46;47.85;;;28.55;;
40453;SDS011;26160;51.858;4.398;2022-10-31T14:56:26;44.97;;;30.50;;
40453;SDS011;26160;51.858;4.398;2022-10-31T14:59:06;48.70;;;31.25;;
40453;SDS011;26160;51.858;4.398;2022-10-31T15:01:38;47.08;;;31.23;;
40453;SDS011;26160;51.858;4.398;2022-10-31T15:06:48;52.80;;;31.88;;
40453;SDS011;26160;51.858;4.398;2022-10-31T15:09:23;50.70;;;33.20;;
40453;SDS011;26160;51.858;4.398;2022-10-31T15:11:55;53.92;;;34.17;;
40453;SDS011;26160;51.858;4.398;2022-10-31T15:14:29;52.22;;;35.17;;
40453;SDS011;26160;51.858;4.398;2022-10-31T15:16:56;56.15;;;35.17;;
40453;SDS011;26160;51.858;4.398;2022-10-31T15:19:24;58.30;;;34.38;;
40453;SDS011;26160;51.858;4.398;2022-10-31T15:21:53;60.75;;;35.50;;
40453;SDS011;26160;51.858;4.398;2022-10-31T15:24:22;54.80;;;36.00;;
40453;SDS011;26160;51.858;4.398;2022-10-31T15:26:50;52.97;;;33.85;;
40453;SDS011;26160;51.858;4.398;2022-10-31T15:29:19;57.70;;;38.15;;
40453;SDS011;26160;51.858;4.398;2022-10-31T15:36:53;56.55;;;37.67;;
40453;SDS011;26160;51.858;4.398;2022-10-31T15:39:19;65.50;;;38.03;;
40453;SDS011;26160;51.858;4.398;2022-10-31T15:41:53;63.13;;;38.67;;
40453;SDS011;26160;51.858;4.398;2022-10-31T15:44:28;67.93;;;40.50;;
40453;SDS011;26160;51.858;4.398;2022-10-31T15:49:35;57.97;;;37.20;;
40453;SDS011;26160;51.858;4.398;2022-10-31T15:52:12;70.20;;;45.25;;
40453;SDS011;26160;51.858;4.398;2022-10-31T15:54:47;66.68;;;41.83;;
40453;SDS011;26160;51.858;4.398;2022-10-31T15:57:15;67.38;;;42.22;;
40453;SDS011;26160;51.858;4.398;2022-10-31T15:59:44;65.68;;;41.55;;
40453;SDS011;26160;51.858;4.398;2022-10-31T16:02:13;64.97;;;40.30;;
40453;SDS011;26160;51.858;4.398;2022-10-31T16:04:50;63.67;;;41.95;;
40453;SDS011;26160;51.858;4.398;2022-10-31T16:07:21;72.95;;;43.95;;
40453;SDS011;26160;51.858;4.398;2022-10-31T16:12:22;68.88;;;40.95;;
40453;SDS011;26160;51.858;4.398;2022-10-31T16:14:50;62.40;;;41.83;;
40453;SDS011;26160;51.858;4.398;2022-10-31T16:17:18;67.60;;;43.85;;
40453;SDS011;26160;51.858;4.398;2022-10-31T16:27:35;60.40;;;41.05;;
40453;SDS011;26160;51.858;4.398;2022-10-31T16:30:26;62.70;;;40.25;;
40453;SDS011;26160;51.858;4.398;2022-10-31T16:32:56;71.82;;;44.08;;
40453;SDS011;26160;51.858;4.398;2022-10-31T16:35:38;72.85;;;40.90;;
40453;SDS011;26160;51.858;4.398;2022-10-31T16:38:10;62.08;;;39.97;;
40453;SDS011;26160;51.858;4.398;2022-10-31T16:40:37;57.03;;;38.83;;
40453;SDS011;26160;51.858;4.398;2022-10-31T16:43:04;63.30;;;40.17;;
40453;SDS011;26160;51.858;4.398;2022-10-31T16:45:31;63.97;;;38.42;;
40453;SDS011;26160;51.858;4.398;2022-10-31T16:48:02;56.75;;;37.22;;
40453;SDS011;26160;51.858;4.398;2022-10-31T16:50:30;65.47;;;36.88;;
40453;SDS011;26160;51.858;4.398;2022-10-31T16:52:57;68.13;;;39.47;;
40453;SDS011;26160;51.858;4.398;2022-10-31T16:55:23;55.00;;;36.95;;
40453;SDS011;26160;51.858;4.398;2022-10-31T16:57:50;62.70;;;36.65;;
40453;SDS011;26160;51.858;4.398;2022-10-31T17:00:24;55.47;;;33.13;;
40453;SDS011;26160;51.858;4.398;2022-10-31T17:02:52;55.95;;;33.75;;
40453;SDS011;26160;51.858;4.398;2022-10-31T17:05:22;49.67;;;31.15;;
40453;SDS011;26160;51.858;4.398;2022-10-31T17:07:55;49.95;;;30.48;;
40453;SDS011;26160;51.858;4.398;2022-10-31T17:10:21;47.38;;;28.55;;
40453;SDS011;26160;51.858;4.398;2022-10-31T17:12:48;46.30;;;27.98;;
40453;SDS011;26160;51.858;4.398;2022-10-31T17:15:16;39.88;;;26.30;;
40453;SDS011;26160;51.858;4.398;2022-10-31T17:17:45;49.08;;;26.65;;
40453;SDS011;26160;51.858;4.398;2022-10-31T17:20:17;43.38;;;25.60;;
40453;SDS011;26160;51.858;4.398;2022-10-31T17:22:54;49.38;;;24.42;;
40453;SDS011;26160;51.858;4.398;2022-10-31T17:25:22;40.28;;;24.80;;
40453;SDS011;26160;51.858;4.398;2022-10-31T17:27:50;40.50;;;24.85;;
40453;SDS011;26160;51.858;4.398;2022-10-31T17:30:17;44.72;;;24.98;;
40453;SDS011;26160;51.858;4.398;2022-10-31T17:32:45;47.95;;;26.17;;